VEJS/IXW METAR and TAF weather

Enter ICAO airport designator
Station Type Date Time Source
VEJS METAR 2019/05/26 02:00 UTC NOAA

VEJS 260200Z 00000KT 3000 HZ NSC 30/23 Q1004


Station Type Date Time Source
VEJS Decoded METAR 2019/05/26 02:00 UTC NOAA

Jamshedpur, India (VEJS) 22-49N 086-11E 142M
May 25, 2019 - 10:00 PM EDT / 2019.05.26 0200 UTC
Wind: Calm:0
Visibility: 1 mile(s):0
Weather: haze
Temperature: 86 F (30 C)
Heat index: 93.4 F (34.1 C):1
Dew Point: 73 F (23 C)
Relative Humidity: 66%
Pressure (altimeter): 29.65 in. Hg (1004 hPa)
ob: VEJS 260200Z 00000KT 3000 HZ NSC 30/23 Q1004
cycle: 2

Station Type Date Time Source
VEJS TAF 2009/11/01 09:00 UTC NOAA

TAF VEJS 010900Z 0112/0121 36004KT 2500 HZ FEW020 SCT025 SCT100
BECMG 0116/0118 00000KT 2000 HZ FEW018 SCT
BECMG 0119/0121 00000KT 1600 BR

Example: see airport list